Asheville, NC

3:23 PM EDT on April 22, 2018 (GMT -0400)
Asheville Regional

Weather History for KAVL - July, 2013

Change the Weather History Date:

Thursday, July 4, 2013

  Actual Average Record
Temperature  
Mean Temperature 69 °F 74 °F  
Max Temperature 74 °F 84 °F 97 °F (1948)
Min Temperature 63 °F 63 °F 51 °F (1986)
Degree Days  
Heating Degree Days 0 0  
Month to date heating degree days 0 0  
Since 1 June heating degree days 0 14  
Since 1 July heating degree days 0 0  
Cooling Degree Days 4 8  
Month to date cooling degree days 24 32  
Year to date cooling degree days 277 267  
Since 1 June cooling degree days 226 209  
Growing Degree Days 18 (Base 50)    
Moisture  
Dew Point 65 °F    
Average Humidity 97    
Maximum Humidity 100    
Minimum Humidity 93    
Precipitation  
Precipitation 2.09 in 0.15 in 2.09 in (2013)
Month to date precipitation 6.76 0.58  
Year to date precipitation 44.85 23.48  
Snow  
Snow 0.00 in 0.00 in 0.00 in ()
Month to date snowfall 0.0 0.0  
Since 1 June snowfall 0.0 0.0  
Since 1 July snowfall 0.0 0.0  
Snow Depth 0.00 in    
Sea Level Pressure  
Sea Level Pressure 30.24 in    
Wind  
Wind Speed 4 mph (South)    
Max Wind Speed 16 mph    
Max Gust Speed 21 mph    
Visibility 7 miles    
Events Rain , Thunderstorm    
T = Trace of Precipitation, MM = Missing Value Source: NWS Daily Summary

Daily Weather History Graph

Daily Weather History Graph

Search for Another Location

Airport or City:

Astronomy

Jul. 04, 2013 Rise Set
Actual Time 6:20 AM EDT 8:48 PM EDT
Civil Twilight 5:50 AM EDT 9:18 PM EDT
Nautical Twilight 5:13 AM EDT 9:55 PM EDT
Astronomical Twilight 4:33 AM EDT 10:35 PM EDT
Moon 3:33 AM EDT (7/4) 5:54 PM EDT (7/4)
Length of Visible Light 15h 28m
Length of Day
14h 28m
Waning Crescent, 11% of the Moon is Illuminated
Jul 4
Waning Crescent
Jul 8
New
Jul 15
First Quarter
Jul 22
Full
Jul 29
Last Quarter

Hourly Weather History & Observations

Time (EDT) Temp. Dew Point Humidity Pressure Visibility Wind Dir Wind Speed Gust Speed Precip Events Conditions
12:15 AM 62.6 °F 62.6 °F 100% 30.29 in 10.0 mi Calm Calm - N/A   Overcast
12:54 AM 63.0 °F 62.1 °F 97% 30.23 in 10.0 mi Calm Calm - N/A   Overcast
1:13 AM 62.6 °F 62.6 °F 100% 30.27 in 7.0 mi Calm Calm - 0.01 in Rain Rain
1:19 AM 62.6 °F 62.6 °F 100% 30.26 in 8.0 mi NNE 3.5 mph - 0.03 in Rain Rain
1:39 AM 62.6 °F 62.6 °F 100% 30.28 in 8.0 mi Calm Calm - 0.05 in Rain Rain
1:54 AM 63.0 °F 62.1 °F 97% 30.22 in 10.0 mi SSW 3.5 mph - 0.05 in Rain Light Rain
2:08 AM 62.6 °F 62.6 °F 100% 30.26 in 10.0 mi Calm Calm - 0.00 in   Overcast
2:26 AM 62.6 °F 62.6 °F 100% 30.27 in 10.0 mi Calm Calm - 0.00 in   Overcast
2:54 AM 63.0 °F 62.1 °F 97% 30.21 in 9.0 mi Calm Calm - 0.00 in Rain Light Rain
3:25 AM 62.6 °F 62.6 °F 100% 30.27 in 3.0 mi SSW 3.5 mph - 0.11 in Rain Rain
3:36 AM 62.6 °F 62.6 °F 100% 30.26 in 2.5 mi Calm Calm - 0.20 in Rain Heavy Rain
3:46 AM 62.6 °F 62.6 °F 100% 30.27 in 4.0 mi Calm Calm - 0.23 in Rain Rain
3:54 AM 63.0 °F 62.1 °F 97% 30.21 in 6.0 mi Calm Calm - 0.26 in Rain Light Rain
4:16 AM 62.6 °F 62.6 °F 100% 30.26 in 7.0 mi Calm Calm - 0.05 in Rain Rain
4:40 AM 62.6 °F 62.6 °F 100% 30.24 in 10.0 mi Calm Calm - 0.07 in Rain Light Rain
4:54 AM 63.0 °F 62.1 °F 97% 30.19 in 10.0 mi Calm Calm - 0.07 in   Overcast
5:54 AM 63.0 °F 62.1 °F 97% 30.21 in 10.0 mi Calm Calm - N/A   Overcast
6:54 AM 64.0 °F 62.1 °F 93% 30.22 in 10.0 mi Calm Calm - 0.01 in Rain Light Rain
7:19 AM 64.4 °F 62.6 °F 94% 30.28 in 10.0 mi South 3.5 mph - 0.01 in Rain Light Rain
7:54 AM 64.0 °F 63.0 °F 96% 30.23 in 10.0 mi Calm Calm - 0.02 in Rain Light Rain
8:01 AM 64.4 °F 62.6 °F 94% 30.29 in 10.0 mi South 3.5 mph - 0.00 in   Overcast
8:11 AM 64.4 °F 62.6 °F 94% 30.29 in 10.0 mi SE 3.5 mph - 0.00 in Rain Light Rain
8:18 AM 64.4 °F 62.6 °F 94% 30.29 in 7.0 mi Calm Calm - 0.00 in Rain Light Rain
8:43 AM 64.4 °F 62.6 °F 94% 30.29 in 9.0 mi South 5.8 mph - 0.02 in Rain Light Rain
8:54 AM 64.0 °F 63.0 °F 96% 30.24 in 2.5 mi Calm Calm - 0.05 in Rain Heavy Rain
9:06 AM 64.4 °F 64.4 °F 100% 30.29 in 6.0 mi Calm Calm - 0.03 in Rain Light Rain
9:19 AM 66.2 °F 64.4 °F 94% 30.29 in 10.0 mi Calm Calm - 0.03 in   Overcast
9:54 AM 66.9 °F 64.9 °F 93% 30.23 in 10.0 mi Calm Calm - 0.04 in   Overcast
10:12 AM 68.0 °F 66.2 °F 94% 30.28 in 10.0 mi Calm Calm - N/A   Overcast
10:21 AM 68.0 °F 66.2 °F 94% 30.28 in 3.0 mi Calm Calm - 0.00 in Rain Rain
10:24 AM 68.0 °F 66.2 °F 94% 30.28 in 2.5 mi Variable 5.8 mph - 0.02 in Rain Rain
10:33 AM 69.8 °F 66.2 °F 88% 30.28 in 10.0 mi SE 6.9 mph - 0.02 in Rain Light Rain
10:54 AM 69.1 °F 66.9 °F 93% 30.22 in 9.0 mi Variable 5.8 mph - 0.03 in Rain Light Rain
11:54 AM 70.0 °F 68.0 °F 93% 30.21 in 5.0 mi SSE 8.1 mph - 0.01 in Rain Light Rain
12:28 PM 71.6 °F 68.0 °F 88% 30.27 in 8.0 mi SE 10.4 mph 17.3 mph 0.00 in Rain Light Rain
12:54 PM 72.0 °F 69.1 °F 91% 30.21 in 10.0 mi SSE 8.1 mph 17.3 mph 0.01 in   Overcast
1:50 PM 73.4 °F 69.8 °F 88% 30.25 in 9.0 mi SSE 6.9 mph - 0.00 in Rain Light Rain
1:54 PM 73.9 °F 69.1 °F 85% 30.18 in 10.0 mi SSE 6.9 mph - 0.00 in Rain Light Rain
2:18 PM 71.6 °F 69.8 °F 94% 30.24 in 1.8 mi SE 5.8 mph - 0.04 in Rain Heavy Rain
2:26 PM 71.6 °F 69.8 °F 94% 30.24 in 2.0 mi South 3.5 mph - 0.11 in Rain Light Rain
2:31 PM 71.6 °F 69.8 °F 94% 30.25 in 3.0 mi South 6.9 mph - 0.11 in Rain Rain
2:35 PM 71.6 °F 69.8 °F 94% 30.24 in 1.8 mi South 8.1 mph - 0.14 in Rain Heavy Rain
2:41 PM 69.8 °F 69.8 °F 100% 30.24 in 0.8 mi SSW 5.8 mph - 0.29 in Rain Heavy Rain
2:54 PM 70.0 °F 69.1 °F 97% 30.19 in 2.5 mi South 11.5 mph 17.3 mph 0.52 in Rain Light Rain
3:01 PM 71.6 °F 68.0 °F 88% 30.25 in 10.0 mi SSW 8.1 mph - 0.00 in   Overcast
3:14 PM 69.8 °F 68.0 °F 94% 30.23 in 10.0 mi SW 8.1 mph - 0.00 in Thunderstorm Overcast
3:44 PM 68.0 °F 66.2 °F 94% 30.23 in 6.0 mi South 3.5 mph - 0.03 in Rain Light Rain
3:51 PM 68.0 °F 66.2 °F 94% 30.24 in 1.8 mi South 4.6 mph - 0.08 in Rain Heavy Rain
3:54 PM 68.0 °F 66.0 °F 93% 30.18 in 1.2 mi South 4.6 mph - 0.12 in Rain Heavy Rain
4:06 PM 66.2 °F 66.2 °F 100% 30.24 in 0.8 mi Calm Calm - 0.24 in Rain Heavy Rain
4:11 PM 68.0 °F 66.2 °F 94% 30.24 in 1.5 mi Calm Calm - 0.24 in Rain Light Rain
4:13 PM 69.8 °F 66.2 °F 88% 30.24 in 5.0 mi Calm Calm - 0.24 in Rain Light Rain
4:21 PM 69.8 °F 66.2 °F 88% 30.24 in 10.0 mi Variable 3.5 mph - 0.24 in   Mostly Cloudy
4:29 PM 69.8 °F 66.2 °F 88% 30.23 in 10.0 mi Calm Calm - 0.24 in   Overcast
4:54 PM 70.0 °F 68.0 °F 93% 30.16 in 10.0 mi Calm Calm - 0.25 in Rain Light Rain
5:06 PM 69.8 °F 68.0 °F 94% 30.23 in 8.0 mi East 3.5 mph - 0.01 in Rain Light Rain
5:54 PM 69.1 °F 66.9 °F 93% 30.18 in 10.0 mi SE 3.5 mph - 0.04 in   Mostly Cloudy
6:26 PM 69.8 °F 66.2 °F 88% 30.24 in 10.0 mi SSW 4.6 mph - 0.00 in Rain Light Rain
6:31 PM 68.0 °F 66.2 °F 94% 30.25 in 1.8 mi South 6.9 mph - 0.01 in Rain Heavy Rain
6:38 PM 68.0 °F 66.2 °F 94% 30.26 in 1.2 mi SSE 13.8 mph 20.7 mph 0.10 in Rain Rain
6:45 PM 66.2 °F 66.2 °F 100% 30.26 in 0.8 mi SSW 13.8 mph 20.7 mph 0.24 in Rain Heavy Rain
6:51 PM 66.2 °F 64.4 °F 94% 30.25 in 1.0 mi SSW 8.1 mph 18.4 mph 0.40 in Rain Heavy Rain
6:52 PM 66.9 °F 64.9 °F 93% 30.20 in 1.0 mi SSW 10.4 mph 18.4 mph 0.40 in Rain Rain
6:55 PM 66.2 °F 64.4 °F 94% 30.25 in 2.5 mi SSW 9.2 mph - 0.01 in Rain Rain
7:54 PM 66.9 °F 66.0 °F 97% 30.19 in 2.5 mi SSE 3.5 mph - 0.09 in Rain Light Rain
8:19 PM 66.2 °F 66.2 °F 100% 30.24 in 10.0 mi Calm Calm - 0.05 in Rain Light Rain
8:54 PM 66.9 °F 66.0 °F 97% 30.18 in 10.0 mi SE 3.5 mph - 0.08 in Rain Light Rain
9:16 PM 66.2 °F 66.2 °F 100% 30.24 in 10.0 mi SSE 4.6 mph - 0.03 in Rain Light Rain
9:39 PM 66.2 °F 66.2 °F 100% 30.24 in 10.0 mi SE 3.5 mph - 0.04 in Rain Light Rain
9:54 PM 66.9 °F 66.0 °F 97% 30.19 in 10.0 mi SSE 3.5 mph - 0.04 in   Mostly Cloudy
10:37 PM 68.0 °F 66.2 °F 94% 30.26 in 10.0 mi SE 4.6 mph - N/A   Overcast
10:54 PM 66.9 °F 66.0 °F 97% 30.20 in 10.0 mi SSE 5.8 mph - N/A   Overcast
11:54 PM 66.9 °F 66.0 °F 97% 30.20 in 10.0 mi SSE 4.6 mph - N/A   Overcast